Kimble County Airport

About
Name: Kimble County Airport
Identifier:  JCT/KJCT
Local Time:  22. Aug 23:58 CDT
Location
Flights per Day
0 flights
Distance: 816km (507mi)
Punctuality
0% (0 flights per day delayed)
Delay Average: 20 minutes
Current Weather
 29 C (Humidity: 48%)
  5kt (9km/h / 5mph) from 120°
  Few clouds at 6,500 feet (1,981 meter)
  16km (10 mi.)
 METAR KJCT 230351Z AUTO 12005KT 10SM FEW065 29/17 A2994 RMK AO2 SLP098 T02940172

Current Flights

Departures
Number Departure To Airline
Arrivals
Number Arrival From Airline

Current Delays

Departures
N/A
Arrivals
N/A

Destinations

Top Destinations
Airport Flights
per week
Seats
per week
  Lake Charles (LCH) 0 - 0 0
  Albuquerque (ABQ) 0 - 0 0
  Tyler (TYR) 0 - 0 0
  San Antonio (SAT) 0 - 0 0
  New Braunfels (QQZ) 0 - 0 0
  San Marcos (HYI) 0 - 0 0
  San Antonio (SSF) 0 - 0 0

Airlines & Planes

Top Airlines
Airline Flights
per Day
Seats
per Day
Nordwind Airlines 0 -
Jet Charter Inc ( Franklin Lakes Nj ) 0 -
  Flybe Nordic 0 -
  Novair 0 -
  Nolinor Aviation 0 -
Top Plane Types
Model Flights Seats
Beech B200 Super King Air 0.1/day - 0
Pilatus PC-12 0.1/day - 0
Mooney M20K 0.1/day - 0
Cessna C172 0.1/day - 0